Terminal Aerodrome Forecast
Issued by NWS Portland, ME

Current Version | Previous Version | Text Only | Print | Product List | Glossary On
Versions: 1 2 3 4 5 6 7 8 9 10 11 12 13 14 15 16 17 18 19 20 21 22 23 24 25 26 27
444
FTUS41 KGYX 192330
TAFPWM
TAF
KPWM 192330Z 2000/2024 19010KT P6SM OVC040
     FM200100 20007KT 6SM -SHRA OVC025
     FM200600 20007KT 2SM -SHRA BR OVC007
     FM201400 VRB03KT 6SM BR BKN012=

USA.gov is the U.S. government's official web portal to all federal, state and local government web resources and services.